Time;durP1;ratioP1;P1;durP2;ratioP2;P2;SDS_P1;SDS_P2;PMS_P1;PMS_P2;Temp;Humidity;BMP_temperature;BMP_pressure;BME280_temperature;BME280_humidity;BME280_pressure;Samples;Min_cycle;Max_cycle;Signal;HPM_P1;HPM_P2
2022/11/18 00:01:20;;;;;;;108.85;54.40;;;;;;;9.86;100.00;98390.28;5031236;28;20387;-67
2022/11/18 00:03:46;;;;;;;238.68;55.65;;;;;;;9.62;100.00;98388.44;5031362;28;20029;-67
2022/11/18 00:06:16;;;;;;;164.57;53.38;;;;;;;9.37;100.00;98406.06;5013565;28;20029;-68
2022/11/18 00:08:41;;;;;;;195.67;58.27;;;;;;;9.35;100.00;98402.81;5031282;28;20025;-68
2022/11/18 00:11:09;;;;;;;241.45;57.95;;;;;;;9.24;100.00;98398.88;5031881;28;20621;-67
2022/11/18 00:16:20;;;;;;;285.02;58.75;;;;;;;8.77;100.00;98406.59;5034807;28;20040;-68
2022/11/18 00:18:46;;;;;;;286.67;55.65;;;;;;;8.66;100.00;98397.91;5034754;28;20021;-68
2022/11/18 00:21:11;;;;;;;213.75;59.88;;;;;;;8.76;100.00;98402.19;5034701;28;20022;-68
2022/11/18 00:23:38;;;;;;;249.48;56.55;;;;;;;8.73;100.00;98388.97;5034844;28;20507;-68
2022/11/18 00:26:10;;;;;;;207.60;55.83;;;;;;;8.55;100.00;98393.97;5034126;28;20030;-67
2022/11/18 00:28:36;;;;;;;280.38;58.65;;;;;;;8.51;100.00;98399.41;5034091;28;20396;-67
2022/11/18 00:31:04;;;;;;;194.48;52.97;;;;;;;8.47;100.00;98408.78;5034756;28;20057;-67
2022/11/18 00:33:30;;;;;;;221.73;53.40;;;;;;;8.51;100.00;98407.78;5016569;28;20029;-67
2022/11/18 00:35:57;;;;;;;188.02;52.00;;;;;;;8.49;100.00;98406.44;5016617;28;20021;-68
2022/11/18 00:38:23;;;;;;;153.02;52.53;;;;;;;8.59;100.00;98405.22;5034158;28;20045;-67
2022/11/18 00:40:49;;;;;;;143.23;52.42;;;;;;;8.68;100.00;98409.53;5033128;28;20033;-67
2022/11/18 00:43:14;;;;;;;155.55;54.35;;;;;;;8.83;100.00;98410.81;5015321;28;20099;-67
2022/11/18 00:45:42;;;;;;;197.18;56.78;;;;;;;8.66;100.00;98394.28;5034089;28;20563;-67
2022/11/18 00:48:07;;;;;;;188.15;59.30;;;;;;;8.69;100.00;98415.94;5034170;28;20031;-68
2022/11/18 00:50:32;;;;;;;184.13;57.03;;;;;;;8.70;100.00;98400.81;5034246;28;20017;-67
2022/11/18 00:52:58;;;;;;;181.95;57.85;;;;;;;8.58;100.00;98404.41;5034202;28;20036;-67
2022/11/18 00:55:23;;;;;;;202.85;58.88;;;;;;;8.54;100.00;98409.84;5014463;28;20539;-68
2022/11/18 00:57:49;;;;;;;155.10;55.55;;;;;;;8.79;100.00;98412.66;4987260;28;20504;-68
2022/11/18 01:00:15;;;;;;;163.77;56.00;;;;;;;8.65;100.00;98409.41;5009565;28;20125;-68
2022/11/18 01:02:40;;;;;;;182.88;57.58;;;;;;;8.63;100.00;98406.97;5002179;28;20504;-67
2022/11/18 01:05:06;;;;;;;167.10;56.35;;;;;;;8.93;100.00;98414.25;5014019;28;20081;-67
2022/11/18 01:07:31;;;;;;;149.82;55.88;;;;;;;8.90;100.00;98414.97;4977172;28;20081;-68
2022/11/18 01:09:57;;;;;;;145.98;54.80;;;;;;;8.85;100.00;98414.06;4994443;28;20022;-67
2022/11/18 01:15:07;;;;;;;160.18;56.92;;;;;;;8.69;100.00;98404.78;5033946;28;20412;-68
2022/11/18 01:17:32;;;;;;;130.02;55.20;;;;;;;8.79;100.00;98401.50;5022378;28;20026;-68
2022/11/18 01:19:58;;;;;;;128.57;51.47;;;;;;;8.90;100.00;98401.84;5027591;28;20477;-67
2022/11/18 01:22:24;;;;;;;302.10;56.45;;;;;;;8.95;100.00;98400.81;5013566;28;20032;-67
2022/11/18 01:24:49;;;;;;;154.13;51.53;;;;;;;8.98;100.00;98391.72;5013511;28;20408;-67
2022/11/18 01:27:14;;;;;;;143.82;48.40;;;;;;;9.03;100.00;98394.25;4996165;28;20512;-67
2022/11/18 01:29:40;;;;;;;156.23;47.25;;;;;;;9.10;100.00;98397.28;5013544;28;20022;-68
2022/11/18 01:32:06;;;;;;;160.73;44.78;;;;;;;9.16;100.00;98394.25;5002161;28;20029;-67
2022/11/18 01:34:31;;;;;;;140.18;45.08;;;;;;;9.24;100.00;98387.72;5001882;28;20029;-67
2022/11/18 01:36:57;;;;;;;127.35;43.08;;;;;;;9.16;100.00;98383.09;5013789;28;20054;-67
2022/11/18 01:39:23;;;;;;;88.00;43.03;;;;;;;9.18;100.00;98386.34;5021341;28;20397;-68
2022/11/18 01:41:48;;;;;;;104.47;43.92;;;;;;;9.19;100.00;98386.00;5033040;28;20469;-68
2022/11/18 01:44:51;;;;;;;109.50;43.38;;;;;;;9.22;100.00;98381.69;5033276;28;20025;-67
2022/11/18 01:47:17;;;;;;;109.53;41.47;;;;;;;9.24;100.00;98387.72;5012719;28;20115;-67
2022/11/18 01:49:43;;;;;;;91.25;41.38;;;;;;;9.35;100.00;98385.25;4995674;28;20038;-68
2022/11/18 01:52:09;;;;;;;133.77;41.45;;;;;;;9.37;100.00;98372.56;5014153;28;20110;-67
2022/11/18 01:54:41;;;;;;;89.75;39.95;;;;;;;9.38;100.00;98368.59;5032962;28;20056;-67
2022/11/18 01:57:19;;;;;;;78.65;39.47;;;;;;;9.47;100.00;98378.81;5029151;28;20018;-67
2022/11/18 01:59:49;;;;;;;92.15;40.67;;;;;;;9.52;100.00;98373.81;4981222;28;20038;-67
2022/11/18 02:02:15;;;;;;;;;;;;;;;9.53;100.00;98369.84;5007284;28;20029;-68
2022/11/18 02:04:46;;;;;;;86.00;38.55;;;;;;;9.58;99.84;98379.13;5012907;28;20301;-68
2022/11/18 02:07:13;;;;;;;73.57;35.97;;;;;;;9.60;99.64;98374.81;5020221;28;20030;-68
2022/11/18 02:09:39;;;;;;;54.80;33.90;;;;;;;9.61;98.43;98370.84;5015160;28;20037;-67
2022/11/18 02:12:06;;;;;;;61.88;35.47;;;;;;;9.64;98.25;98374.91;5014854;28;20416;-67
2022/11/18 02:14:35;;;;;;;70.50;35.63;;;;;;;9.67;97.69;98365.81;5032454;28;20428;-67
2022/11/18 02:17:19;;;;;;;73.30;34.45;;;;;;;9.72;97.14;98373.13;4996843;28;20026;-67
2022/11/18 02:20:21;;;;;;;48.65;31.63;;;;;;;9.50;96.38;98364.97;4995177;28;20045;-67
2022/11/18 02:23:05;;;;;;;66.38;34.33;;;;;;;9.39;96.80;98370.22;5028341;28;20025;-68
2022/11/18 02:25:58;;;;;;;69.15;34.05;;;;;;;9.41;95.81;98359.56;5032526;28;20033;-68
2022/11/18 02:28:49;;;;;;;84.95;34.25;;;;;;;9.34;95.35;98362.13;5032574;28;20480;-67
2022/11/18 02:31:26;;;;;;;90.70;36.67;;;;;;;9.21;95.19;98352.16;5025123;28;20392;-67
2022/11/18 02:33:57;;;;;;;69.97;36.13;;;;;;;9.26;95.18;98354.69;4994926;28;20118;-68
2022/11/18 02:36:40;;;;;;;54.65;34.72;;;;;;;8.91;96.96;98349.66;4994617;28;20033;-67
2022/11/18 02:39:30;;;;;;;70.47;34.50;;;;;;;9.05;97.72;98354.88;5012538;28;20021;-67
2022/11/18 02:42:01;;;;;;;65.75;33.75;;;;;;;9.05;97.33;98349.28;4998257;28;20120;-68
2022/11/18 02:44:28;;;;;;;;;;;;;;;9.10;95.43;98358.22;5020374;28;20033;-67
2022/11/18 02:46:59;;;;;;;94.38;34.47;;;;;;;8.90;96.77;98343.28;5031814;28;19924;-67
2022/11/18 02:49:31;;;;;;;69.47;33.88;;;;;;;9.04;95.74;98354.06;5014352;28;20025;-68
2022/11/18 02:51:57;;;;;;;59.17;33.28;;;;;;;9.05;95.06;98361.28;5014172;28;20084;-67
2022/11/18 02:54:25;;;;;;;73.15;34.33;;;;;;;8.66;96.58;98360.84;5014186;28;20108;-67
2022/11/18 02:56:52;;;;;;;99.45;35.85;;;;;;;8.38;98.51;98364.31;5010623;28;20018;-67
2022/11/18 02:59:18;;;;;;;88.95;36.10;;;;;;;8.70;97.94;98373.75;5020873;28;20024;-67
2022/11/18 03:01:44;;;;;;;72.88;33.70;;;;;;;8.84;96.87;98365.03;5031645;28;20025;-67
2022/11/18 03:04:12;;;;;;;58.67;33.55;;;;;;;8.91;95.74;98374.75;4993699;28;20037;-67
2022/11/18 03:06:40;;;;;;;74.13;36.17;;;;;;;8.91;95.56;98371.97;4992305;28;20449;-67
2022/11/18 03:09:34;;;;;;;92.18;34.20;;;;;;;8.96;95.31;98366.97;4992675;28;20397;-67
2022/11/18 03:12:30;;;;;;;123.03;32.25;;;;;;;8.91;94.36;98378.38;5004784;28;20362;-67
2022/11/18 03:15:17;;;;;;;145.35;35.08;;;;;;;8.74;93.71;98376.66;5011396;28;20053;-67
2022/11/18 03:18:13;;;;;;;116.30;32.67;;;;;;;8.79;94.10;98376.41;5011967;28;20025;-67
2022/11/18 03:21:20;;;;;;;235.05;37.00;;;;;;;8.80;94.48;98388.38;5011676;28;20037;-68
2022/11/18 03:24:01;;;;;;;148.13;33.15;;;;;;;8.75;94.31;98385.81;4986338;28;20103;-67
2022/11/18 03:26:35;;;;;;;115.93;31.88;;;;;;;8.70;94.01;98390.47;5011503;28;20026;-67
2022/11/18 03:29:03;;;;;;;109.05;33.35;;;;;;;8.73;94.32;98388.97;5022720;28;20384;-68
2022/11/18 03:31:36;;;;;;;78.47;30.63;;;;;;;8.53;95.98;98394.28;5010138;28;20518;-67
2022/11/18 03:34:08;;;;;;;126.97;32.63;;;;;;;8.40;95.41;98401.00;5031469;28;20401;-67
2022/11/18 03:36:38;;;;;;;107.00;33.75;;;;;;;8.40;95.94;98396.25;5031424;28;20085;-67
2022/11/18 03:39:07;;;;;;;176.90;31.60;;;;;;;8.34;95.46;98389.25;5021625;28;20358;-67
2022/11/18 03:41:38;;;;;;;186.55;32.80;;;;;;;8.03;95.78;98404.53;5011704;28;20116;-67
2022/11/18 03:44:12;;;;;;;146.65;32.92;;;;;;;8.12;96.11;98407.22;5028305;28;20037;-67
2022/11/18 03:46:46;;;;;;;133.38;31.10;;;;;;;8.15;96.62;98404.56;5032743;28;20642;-67
2022/11/18 03:49:23;;;;;;;109.55;30.90;;;;;;;8.11;96.37;98408.38;5035338;28;20523;-67
2022/11/18 03:51:55;;;;;;;106.75;28.80;;;;;;;8.22;96.95;98422.66;5030677;28;20060;-67
2022/11/18 03:54:28;;;;;;;128.93;29.65;;;;;;;8.31;96.03;98414.22;5015332;28;20022;-67
2022/11/18 03:56:58;;;;;;;106.80;30.33;;;;;;;8.34;95.82;98416.31;5015470;28;20109;-67
2022/11/18 03:59:44;;;;;;;82.70;27.58;;;;;;;8.34;95.73;98405.97;5015604;28;20097;-67
2022/11/18 04:02:17;;;;;;;86.85;30.48;;;;;;;8.33;95.05;98417.50;5015450;28;20092;-67
2022/11/18 04:04:46;;;;;;;112.03;28.67;;;;;;;8.37;94.86;98416.41;5015739;28;20025;-67
2022/11/18 04:07:14;;;;;;;115.95;29.88;;;;;;;8.31;94.40;98422.56;5018200;28;20196;-67
2022/11/18 04:09:56;;;;;;;76.25;31.38;;;;;;;8.29;94.33;98417.34;5015274;28;20484;-67
2022/11/18 04:12:25;;;;;;;103.43;28.83;;;;;;;8.41;94.50;98425.75;4997616;28;20397;-67
2022/11/18 04:14:54;;;;;;;59.05;26.85;;;;;;;8.29;94.26;98426.50;5015434;28;20109;-67
2022/11/18 04:17:22;;;;;;;96.47;28.30;;;;;;;8.07;94.47;98427.75;5014964;28;20387;-67
2022/11/18 04:19:48;;;;;;;90.63;28.90;;;;;;;8.03;95.41;98434.34;4993992;28;20022;-67
2022/11/18 04:22:14;;;;;;;74.85;27.67;;;;;;;7.98;95.39;98432.59;5030661;28;20029;-67
2022/11/18 04:24:40;;;;;;;95.28;31.02;;;;;;;7.87;95.30;98437.78;5034902;28;20448;-68
2022/11/18 04:27:05;;;;;;;97.30;27.65;;;;;;;7.92;95.90;98429.19;5034562;28;20108;-67
2022/11/18 04:29:32;;;;;;;121.22;31.52;;;;;;;8.02;95.69;98439.09;5016578;28;20022;-67
2022/11/18 04:31:59;;;;;;;124.90;30.10;;;;;;;8.00;95.33;98431.09;4996966;28;20022;-67
2022/11/18 04:34:24;;;;;;;79.15;28.23;;;;;;;8.14;95.07;98429.97;5014460;28;20108;-67
2022/11/18 04:36:50;;;;;;;109.38;29.45;;;;;;;8.19;95.10;98432.53;5026776;28;20030;-67
2022/11/18 04:39:16;;;;;;;95.43;30.58;;;;;;;8.13;94.67;98420.78;5034632;28;20029;-67
2022/11/18 04:41:55;;;;;;;133.55;27.73;;;;;;;8.13;94.34;98434.72;5016943;28;20504;-67
2022/11/18 04:44:28;;;;;;;83.50;25.85;;;;;;;8.19;94.72;98431.72;5034515;28;20021;-67
2022/11/18 04:46:55;;;;;;;107.25;25.88;;;;;;;8.06;94.28;98434.47;5015482;28;20049;-67
2022/11/18 04:49:22;;;;;;;98.80;25.88;;;;;;;7.92;94.91;98436.75;4981377;28;20480;-67
2022/11/18 04:51:48;;;;;;;93.90;27.85;;;;;;;7.33;95.46;98431.00;5032891;28;20036;-67
2022/11/18 04:54:15;;;;;;;121.88;27.98;;;;;;;7.14;97.89;98432.31;5034381;28;20018;-67
2022/11/18 04:56:41;;;;;;;137.73;29.35;;;;;;;7.23;98.72;98420.28;5034224;28;20079;-67
2022/11/18 04:59:07;;;;;;;128.07;27.30;;;;;;;7.19;98.58;98424.91;5033074;28;20025;-67
2022/11/18 05:01:33;;;;;;;131.02;29.60;;;;;;;7.27;98.46;98424.03;5029362;28;20101;-67
2022/11/18 05:04:03;;;;;;;101.07;30.23;;;;;;;7.38;98.56;98427.22;5010663;28;20025;-67
2022/11/18 05:06:30;;;;;;;108.78;31.80;;;;;;;7.53;97.92;98431.38;5008978;28;20050;-68
2022/11/18 05:08:57;;;;;;;85.38;29.65;;;;;;;7.66;97.66;98426.66;5014287;28;20026;-68
2022/11/18 05:14:07;;;;;;;70.00;28.40;;;;;;;7.80;96.77;98423.59;5014411;28;20037;-67
2022/11/18 05:16:33;;;;;;;59.63;25.95;;;;;;;7.44;98.01;98415.53;5013817;28;20030;-67
2022/11/18 05:18:58;;;;;;;80.65;26.73;;;;;;;7.50;99.16;98409.78;5005892;28;20096;-67
2022/11/18 05:21:24;;;;;;;103.68;27.90;;;;;;;7.47;98.92;98402.09;5013974;28;20030;-67
2022/11/18 05:23:49;;;;;;;56.67;27.80;;;;;;;7.60;97.94;98406.56;5013756;28;20112;-67
2022/11/18 05:26:15;;;;;;;58.22;26.85;;;;;;;7.71;98.19;98413.34;5014008;28;20034;-67
2022/11/18 05:28:40;;;;;;;72.95;27.25;;;;;;;7.67;98.31;98419.97;5013862;28;20026;-67
2022/11/18 05:31:11;;;;;;;63.72;27.42;;;;;;;7.73;98.16;98422.19;5013625;28;20030;-67
2022/11/18 05:33:38;;;;;;;89.22;29.05;;;;;;;7.61;97.93;98436.06;5016385;28;20092;-67
2022/11/18 05:36:05;;;;;;;44.95;24.70;;;;;;;7.69;98.30;98437.94;5033635;28;20021;-68
2022/11/18 05:38:32;;;;;;;64.68;25.42;;;;;;;7.57;97.87;98438.69;5022229;28;20029;-67
2022/11/18 05:40:57;;;;;;;48.85;24.45;;;;;;;7.66;98.09;98441.41;5013001;28;20021;-67
2022/11/18 05:43:23;;;;;;;41.65;24.58;;;;;;;7.67;96.94;98437.47;4987922;28;20112;-67
2022/11/18 05:45:50;;;;;;;64.32;22.48;;;;;;;7.64;97.22;98440.94;5030789;28;20104;-67
2022/11/18 05:48:17;;;;;;;47.25;21.90;;;;;;;7.81;97.07;98437.19;5024318;28;20465;-67
2022/11/18 05:50:48;;;;;;;65.90;21.42;;;;;;;7.95;95.37;98439.66;5026567;28;20052;-67
2022/11/18 05:53:15;;;;;;;67.72;20.70;;;;;;;7.99;94.71;98442.56;5025341;28;20044;-68
2022/11/18 05:56:00;;;;;;;81.72;22.05;;;;;;;8.01;94.20;98445.81;5033623;28;20022;-67
2022/11/18 05:58:26;;;;;;;72.57;21.27;;;;;;;8.07;93.66;98454.78;5032774;28;20025;-67
2022/11/18 06:00:55;;;;;;;94.55;22.65;;;;;;;8.03;93.32;98449.09;5032887;28;20025;-67
2022/11/18 06:03:26;;;;;;;54.70;22.45;;;;;;;8.11;92.98;98450.97;5032164;28;20055;-66
2022/11/18 06:05:54;;;;;;;55.53;23.45;;;;;;;8.18;92.88;98455.16;5031790;28;20088;-68
2022/11/18 06:08:22;;;;;;;100.90;29.92;;;;;;;7.91;92.53;98455.41;5032328;28;20033;-70
2022/11/18 06:10:49;;;;;;;76.63;27.15;;;;;;;7.99;93.02;98465.69;5014766;28;20492;-69
2022/11/18 06:13:39;;;;;;;68.53;27.45;;;;;;;8.01;93.01;98463.34;5030768;28;20087;-69
2022/11/18 06:16:05;;;;;;;58.38;24.55;;;;;;;8.08;93.49;98467.53;5027332;28;20033;-68
2022/11/18 06:18:31;;;;;;;50.80;25.80;;;;;;;8.04;93.76;98458.25;5028425;28;20088;-68
2022/11/18 06:21:00;;;;;;;59.10;25.98;;;;;;;8.14;92.84;98452.25;5029367;28;20496;-68
2022/11/18 06:23:34;;;;;;;87.32;25.65;;;;;;;8.12;92.69;98449.00;5022625;28;20033;-69
2022/11/18 06:25:59;;;;;;;124.97;26.38;;;;;;;8.11;92.87;98450.16;5027437;28;20108;-68
2022/11/18 06:28:26;;;;;;;103.78;23.58;;;;;;;7.97;92.96;98442.94;5022767;28;20108;-68
2022/11/18 06:30:52;;;;;;;47.03;23.92;;;;;;;7.93;93.67;98458.69;5010797;28;20377;-68
2022/11/18 06:33:17;;;;;;;125.30;31.98;;;;;;;7.45;96.20;98478.38;5027416;28;20083;-68
2022/11/18 06:35:43;;;;;;;137.38;34.35;;;;;;;7.30;98.65;98485.38;5029095;28;20108;-69
2022/11/18 06:38:09;;;;;;;113.38;31.50;;;;;;;6.90;99.82;98490.50;5029480;28;20029;-69
2022/11/18 06:40:36;;;;;;;116.97;34.55;;;;;;;6.88;100.00;98479.72;5028775;28;20495;-69
2022/11/18 06:48:37;;;;;;;85.80;29.85;;;;;;;6.39;100.00;98471.72;5028495;28;20083;-69
2022/11/18 06:51:05;;;;;;;76.85;29.10;;;;;;;6.56;100.00;98455.00;5029653;28;20037;-70
2022/11/18 06:53:33;;;;;;;70.72;22.90;;;;;;;6.67;100.00;98454.66;5029034;28;20060;-69
2022/11/18 06:56:08;;;;;;;76.55;26.50;;;;;;;6.89;100.00;98461.88;5029551;28;20043;-68
2022/11/18 06:58:34;;;;;;;94.63;27.75;;;;;;;6.85;100.00;98458.16;5026931;28;20449;-71
2022/11/18 07:01:22;;;;;;;92.38;26.23;;;;;;;6.83;100.00;98441.81;5027329;28;20116;-68
2022/11/18 07:03:48;;;;;;;100.55;21.75;;;;;;;6.65;100.00;98451.38;5029180;28;20172;-68
2022/11/18 07:06:19;;;;;;;69.82;18.85;;;;;;;6.63;100.00;98450.88;5024810;28;20037;-70
2022/11/18 07:08:45;;;;;;;74.63;20.33;;;;;;;6.78;100.00;98455.06;5009833;28;20116;-68
2022/11/18 07:11:13;;;;;;;84.20;20.52;;;;;;;7.00;100.00;98456.78;5015350;28;20117;-74
2022/11/18 07:13:39;;;;;;;138.75;29.73;;;;;;;7.10;100.00;98455.56;5025182;28;20503;-65
2022/11/18 07:16:10;;;;;;;148.95;23.75;;;;;;;7.18;100.00;98440.78;5028286;28;20043;-68
2022/11/18 07:18:38;;;;;;;100.95;23.60;;;;;;;7.28;100.00;98450.69;5009235;28;20441;-69
2022/11/18 07:21:10;;;;;;;119.90;22.75;;;;;;;7.41;100.00;98446.00;5027194;28;20048;-69
2022/11/18 07:23:36;;;;;;;103.10;23.50;;;;;;;7.56;100.00;98444.59;5011034;28;20418;-70
2022/11/18 07:26:01;;;;;;;106.88;21.52;;;;;;;7.44;100.00;98442.56;5010928;28;20058;-71
2022/11/18 07:28:28;;;;;;;106.18;21.05;;;;;;;7.16;100.00;98449.47;5027518;28;20124;-70
2022/11/18 07:31:00;;;;;;;91.32;20.75;;;;;;;7.41;100.00;98446.84;5011605;28;20025;-73
2022/11/18 07:33:26;;;;;;;125.75;21.17;;;;;;;7.61;100.00;98457.50;5028454;28;20037;-70
2022/11/18 07:35:51;;;;;;;58.97;20.55;;;;;;;7.79;100.00;98463.72;5022269;28;20495;-73
2022/11/18 07:38:17;;;;;;;127.60;20.25;;;;;;;7.75;100.00;98457.22;5024773;28;20037;-70
2022/11/18 07:40:42;;;;;;;83.80;21.38;;;;;;;7.86;100.00;98453.66;5024213;28;20518;-71
2022/11/18 07:43:08;;;;;;;138.57;21.80;;;;;;;7.92;100.00;98457.06;5024154;28;20596;-70
2022/11/18 07:45:34;;;;;;;103.63;19.90;;;;;;;7.85;99.58;98448.44;5028741;28;20065;-70
2022/11/18 07:47:59;;;;;;;86.50;18.98;;;;;;;7.80;99.43;98452.25;5031164;28;20022;-70
2022/11/18 07:50:25;;;;;;;82.65;19.13;;;;;;;7.77;100.00;98450.13;5028732;28;20492;-68
2022/11/18 07:52:54;;;;;;;100.47;18.70;;;;;;;7.82;100.00;98451.91;5017662;28;20037;-69
2022/11/18 07:55:19;;;;;;;86.53;19.35;;;;;;;7.87;100.00;98460.84;5010861;28;20078;-69
2022/11/18 07:57:45;;;;;;;129.40;19.83;;;;;;;8.06;100.00;98464.28;5031273;28;20400;-68
2022/11/18 08:00:12;;;;;;;38.80;30.23;;;;;;;8.22;99.27;98453.31;5027534;28;20033;-74
2022/11/18 08:02:37;;;;;;;118.47;21.35;;;;;;;8.29;98.96;98451.59;5012406;28;20082;-77
2022/11/18 08:05:03;;;;;;;69.90;20.13;;;;;;;8.22;98.69;98444.97;5031386;28;20029;-70
2022/11/18 08:07:29;;;;;;;51.17;18.65;;;;;;;8.29;99.46;98443.22;5031250;28;20030;-70
2022/11/18 08:09:54;;;;;;;110.93;22.10;;;;;;;8.07;99.27;98438.06;5030275;28;20029;-70
2022/11/18 08:12:19;;;;;;;43.00;22.15;;;;;;;8.21;99.83;98435.81;5030537;28;20034;-71
2022/11/18 08:14:45;;;;;;;83.63;22.45;;;;;;;8.33;99.27;98432.22;5028269;28;20033;-70
2022/11/18 08:17:10;;;;;;;71.82;23.27;;;;;;;8.41;98.60;98438.84;5029854;28;20025;-70
2022/11/18 08:19:36;;;;;;;60.90;23.95;;;;;;;8.48;98.51;98444.66;5012316;28;20033;-70
2022/11/18 08:22:01;;;;;;;91.50;20.75;;;;;;;8.51;97.47;98449.56;5030091;28;20037;-70
2022/11/18 08:24:27;;;;;;;51.42;22.02;;;;;;;8.58;97.77;98449.00;5029931;28;20028;-70
2022/11/18 08:26:52;;;;;;;70.10;20.92;;;;;;;8.33;99.24;98459.28;5011749;28;20017;-70
2022/11/18 08:29:18;;;;;;;84.88;21.85;;;;;;;8.33;100.00;98450.91;5008773;28;20033;-70
2022/11/18 08:31:43;;;;;;;111.63;22.88;;;;;;;8.13;100.00;98448.63;5045256;28;20058;-71
2022/11/18 08:34:09;;;;;;;43.90;21.27;;;;;;;8.18;100.00;98439.25;5034409;28;20037;-70
2022/11/18 08:36:36;;;;;;;68.13;22.83;;;;;;;8.27;100.00;98442.78;5024083;28;20028;-70
2022/11/18 08:39:05;;;;;;;60.10;20.90;;;;;;;8.24;100.00;98440.69;5028187;28;20036;-70
2022/11/18 08:41:42;;;;;;;90.82;24.33;;;;;;;8.44;100.00;98457.66;5032679;28;20025;-70
2022/11/18 08:44:11;;;;;;;63.40;29.95;;;;;;;8.47;100.00;98454.19;5030952;28;20028;-70
2022/11/18 08:46:36;;;;;;;107.68;27.92;;;;;;;8.43;100.00;98442.09;5033608;28;20046;-70
2022/11/18 08:49:02;;;;;;;52.92;24.65;;;;;;;8.59;100.00;98433.91;5034148;28;20028;-70
2022/11/18 08:51:28;;;;;;;103.07;26.70;;;;;;;8.76;100.00;98421.72;5032840;28;20025;-70
2022/11/18 08:53:53;;;;;;;63.65;26.77;;;;;;;8.93;100.00;98411.47;5016602;28;20072;-70
2022/11/18 08:56:21;;;;;;;55.65;26.55;;;;;;;9.01;100.00;98407.75;5029941;28;20029;-70
2022/11/18 08:58:46;;;;;;;70.45;33.53;;;;;;;9.16;99.69;98413.78;4997727;28;20038;-69
2022/11/18 09:01:12;;;;;;;391.27;235.93;;;;;;;9.01;99.25;98395.81;5033213;28;20072;-70
2022/11/18 09:03:38;;;;;;;100.22;37.35;;;;;;;8.92;100.00;98399.53;5033852;28;20025;-70
2022/11/18 09:06:05;;;;;;;181.75;109.05;;;;;;;9.11;99.93;98406.44;5015667;28;20028;-70
2022/11/18 09:08:31;;;;;;;88.57;42.65;;;;;;;9.13;98.92;98412.53;5033242;28;20077;-70
2022/11/18 09:10:56;;;;;;;55.75;27.05;;;;;;;8.97;100.00;98404.06;5014367;28;20023;-70
2022/11/18 09:13:22;;;;;;;59.47;25.58;;;;;;;8.91;100.00;98408.22;5033361;28;20030;-70
2022/11/18 09:15:47;;;;;;;172.60;109.10;;;;;;;8.93;100.00;98391.94;5032744;28;20463;-70
2022/11/18 09:18:13;;;;;;;69.65;38.55;;;;;;;9.08;100.00;98391.25;5033019;28;20492;-70
2022/11/18 09:20:38;;;;;;;153.63;91.55;;;;;;;9.19;100.00;98383.19;5033097;28;20083;-70
2022/11/18 09:23:04;;;;;;;78.35;33.67;;;;;;;9.17;100.00;98367.97;5032645;28;20032;-69
2022/11/18 09:25:29;;;;;;;58.65;36.95;;;;;;;9.41;99.83;98384.66;5032013;28;20029;-70
2022/11/18 09:27:55;;;;;;;69.38;38.00;;;;;;;9.36;100.00;98373.75;5033106;28;20455;-70
2022/11/18 09:30:21;;;;;;;49.38;26.23;;;;;;;9.31;99.47;98353.63;5033373;28;20025;-70
2022/11/18 09:32:47;;;;;;;46.63;26.08;;;;;;;9.31;99.70;98351.69;5014480;28;20530;-70
2022/11/18 09:35:13;;;;;;;52.60;28.23;;;;;;;9.53;99.54;98363.44;5015152;28;20022;-70
2022/11/18 09:37:39;;;;;;;60.45;32.72;;;;;;;9.52;99.29;98368.22;5031947;28;20053;-70
2022/11/18 09:40:05;;;;;;;69.55;33.42;;;;;;;9.15;100.00;98365.56;5030776;28;20021;-70
2022/11/18 09:43:07;;;;;;;82.72;34.70;;;;;;;9.31;100.00;98359.22;5031591;28;20056;-70
2022/11/18 09:45:48;;;;;;;111.80;30.27;;;;;;;8.93;100.00;98345.38;5029814;28;20045;-69
2022/11/18 09:48:19;;;;;;;72.28;31.35;;;;;;;8.96;100.00;98335.50;5014871;28;20033;-70
2022/11/18 09:50:45;;;;;;;63.78;31.08;;;;;;;9.20;100.00;98339.38;5030419;28;20119;-69
2022/11/18 09:53:21;;;;;;;83.32;33.28;;;;;;;9.17;100.00;98337.28;5032908;28;20100;-70
2022/11/18 09:55:48;;;;;;;82.28;33.15;;;;;;;8.91;100.00;98335.72;5032924;28;20044;-70
2022/11/18 09:58:34;;;;;;;80.32;32.60;;;;;;;9.13;100.00;98326.84;5014638;28;20029;-70
2022/11/18 10:01:01;;;;;;;65.57;29.55;;;;;;;9.30;100.00;98313.78;5032339;28;20037;-70
2022/11/18 10:03:32;;;;;;;52.83;29.30;;;;;;;9.43;100.00;98325.69;5032747;28;20511;-70
2022/11/18 10:06:23;;;;;;;67.70;30.45;;;;;;;9.52;100.00;98320.75;5009236;28;20089;-70
2022/11/18 10:09:07;;;;;;;62.88;32.17;;;;;;;9.70;100.00;98323.22;5018353;28;20463;-70
2022/11/18 10:11:49;;;;;;;63.03;34.28;;;;;;;9.83;100.00;98318.41;5032476;28;20100;-70
2022/11/18 10:14:46;;;;;;;106.95;37.42;;;;;;;9.88;100.00;98301.34;5027754;28;20492;-70
2022/11/18 10:18:05;;;;;;;67.85;34.40;;;;;;;9.58;100.00;98298.16;5008738;28;20041;-70
2022/11/18 10:20:52;;;;;;;75.53;35.92;;;;;;;9.81;100.00;98284.44;4943549;28;20043;-70
2022/11/18 10:23:25;;;;;;;74.82;38.30;;;;;;;9.78;100.00;98274.78;4949555;28;20035;-70
2022/11/18 10:25:53;;;;;;;72.43;36.33;;;;;;;9.93;100.00;98284.34;5012295;28;20128;-70
2022/11/18 10:28:30;;;;;;;76.95;40.15;;;;;;;10.01;100.00;98292.91;5032623;28;20044;-70
2022/11/18 10:31:07;;;;;;;71.50;37.78;;;;;;;10.14;100.00;98294.47;5032244;28;20037;-70
2022/11/18 10:33:33;;;;;;;65.93;37.13;;;;;;;10.12;99.39;98296.78;5012785;28;20053;-70
2022/11/18 10:36:15;;;;;;;80.88;41.53;;;;;;;9.97;99.92;98290.03;5028603;28;20041;-69
2022/11/18 10:38:41;;;;;;;77.38;36.30;;;;;;;9.80;100.00;98286.41;5010435;28;20112;-66
2022/11/18 10:41:13;;;;;;;79.57;38.50;;;;;;;9.89;100.00;98286.22;5029641;28;20096;-68
2022/11/18 10:43:54;;;;;;;66.47;36.35;;;;;;;9.92;100.00;98287.50;5012325;28;20072;-67
2022/11/18 10:46:25;;;;;;;66.47;38.42;;;;;;;9.91;100.00;98289.50;5011141;28;20528;-67
2022/11/18 10:49:05;;;;;;;62.80;35.10;;;;;;;10.06;100.00;98289.84;5029277;28;20542;-66
2022/11/18 10:51:30;;;;;;;69.82;39.03;;;;;;;9.96;100.00;98266.88;5027654;28;20128;-67
2022/11/18 10:54:08;;;;;;;64.78;37.38;;;;;;;10.00;100.00;98268.94;5029447;28;20389;-69
2022/11/18 10:56:47;;;;;;;69.43;40.45;;;;;;;10.27;100.00;98261.63;5028179;28;20029;-68
2022/11/18 10:59:25;;;;;;;90.57;48.63;;;;;;;10.38;98.86;98259.88;5028520;28;20041;-67
2022/11/18 11:02:09;;;;;;;93.45;46.83;;;;;;;10.18;99.81;98261.00;5009089;28;20034;-67
2022/11/18 11:04:36;;;;;;;129.13;66.10;;;;;;;9.95;100.00;98268.03;5009744;28;20026;-69
2022/11/18 11:07:34;;;;;;;174.85;83.47;;;;;;;10.03;100.00;98273.81;5013220;28;20030;-69
2022/11/18 11:10:06;;;;;;;104.40;54.67;;;;;;;10.09;100.00;98266.78;4996247;28;20025;-69
2022/11/18 11:12:33;;;;;;;88.55;49.03;;;;;;;10.14;100.00;98263.72;5021502;28;20029;-69
2022/11/18 11:15:11;;;;;;;90.18;47.47;;;;;;;10.18;100.00;98269.38;5013690;28;20484;-69
2022/11/18 11:20:51;;;;;;;108.95;55.28;;;;;;;10.23;100.00;98264.31;5031099;28;20056;-69
2022/11/18 11:23:17;;;;;;;118.53;59.15;;;;;;;10.33;100.00;98256.56;5031424;28;20530;-69
2022/11/18 11:25:56;;;;;;;113.05;54.67;;;;;;;10.33;100.00;98249.00;5013533;28;20025;-69
2022/11/18 11:28:21;;;;;;;123.25;58.42;;;;;;;10.32;100.00;98252.16;5031525;28;20026;-69
2022/11/18 11:31:00;;;;;;;155.60;75.18;;;;;;;10.36;100.00;98250.25;5013056;28;20040;-69
2022/11/18 11:33:42;;;;;;;132.55;62.38;;;;;;;10.43;100.00;98253.25;5025761;28;20045;-69
2022/11/18 11:36:26;;;;;;;132.30;62.70;;;;;;;10.48;100.00;98236.19;5031291;28;20042;-69
2022/11/18 11:39:15;;;;;;;124.10;60.25;;;;;;;10.64;99.74;98215.75;5013715;28;20400;-69
2022/11/18 11:41:46;;;;;;;149.57;67.90;;;;;;;10.52;100.00;98217.50;5016850;28;20107;-69
2022/11/18 11:44:33;;;;;;;132.98;68.85;;;;;;;10.66;100.00;98208.59;5031331;28;20036;-69
2022/11/18 11:50:26;;;;;;;143.38;72.47;;;;;;;10.92;99.36;98217.53;5012009;28;20104;-69
2022/11/18 11:52:57;;;;;;;128.27;65.00;;;;;;;11.12;97.69;98215.53;5022678;28;20514;-69